Time;durP1;ratioP1;P1;durP2;ratioP2;P2;SDS_P1;SDS_P2;PMS_P1;PMS_P2;Temp;Humidity;BMP_temperature;BMP_pressure;BME280_temperature;BME280_humidity;BME280_pressure;Samples;Min_cycle;Max_cycle;Signal;HPM_P1;HPM_P2
2022/06/25 00:01:11;;;;;;;8.90;8.10;;;18.30;99.90;;;;;;5074526;28;20072;-49
2022/06/25 00:03:38;;;;;;;9.38;8.68;;;18.30;99.90;;;;;;5074326;28;20071;-50
2022/06/25 00:06:04;;;;;;;9.23;8.43;;;18.30;99.90;;;;;;5072934;28;20048;-48
2022/06/25 00:08:31;;;;;;;7.95;7.25;;;18.20;99.90;;;;;;5074477;28;20044;-51
2022/06/25 00:10:57;;;;;;;10.55;9.65;;;18.20;99.90;;;;;;5074006;28;20047;-51
2022/06/25 00:13:23;;;;;;;9.18;8.38;;;18.20;99.90;;;;;;5074265;28;20044;-49
2022/06/25 00:15:49;;;;;;;9.80;9.00;;;18.20;99.90;;;;;;5074040;28;20060;-49
2022/06/25 00:18:15;;;;;;;9.10;8.30;;;18.10;99.90;;;;;;5073978;28;20052;-49
2022/06/25 00:20:42;;;;;;;9.57;8.77;;;18.10;99.90;;;;;;5074082;28;20040;-50
2022/06/25 00:23:08;;;;;;;9.50;8.70;;;18.10;99.90;;;;;;5073875;28;20391;-50
2022/06/25 00:25:34;;;;;;;10.30;9.30;;;18.00;99.90;;;;;;5073711;28;20279;-51
2022/06/25 00:28:00;;;;;;;11.10;10.20;;;18.00;99.90;;;;;;5073700;28;20044;-49
2022/06/25 00:30:26;;;;;;;9.65;8.90;;;18.00;99.90;;;;;;5073907;28;20131;-53
2022/06/25 00:32:52;;;;;;;10.10;9.32;;;17.90;99.90;;;;;;5072567;28;20495;-49
2022/06/25 00:35:17;;;;;;;9.48;8.50;;;17.90;99.90;;;;;;5073821;28;20094;-51
2022/06/25 00:37:43;;;;;;;10.27;9.38;;;17.90;99.90;;;;;;5073699;28;20040;-49
2022/06/25 00:40:10;;;;;;;9.93;9.07;;;17.90;99.90;;;;;;5073720;28;20566;-50
2022/06/25 00:42:36;;;;;;;9.93;9.02;;;17.80;99.90;;;;;;5073940;28;20044;-52
2022/06/25 00:45:02;;;;;;;9.98;9.00;;;17.80;99.90;;;;;;5073550;28;20086;-50
2022/06/25 00:47:28;;;;;;;9.35;8.65;;;17.80;99.90;;;;;;5073535;28;20570;-51
2022/06/25 00:49:54;;;;;;;9.55;8.65;;;17.90;99.90;;;;;;5073271;28;20124;-53
2022/06/25 00:52:24;;;;;;;10.27;9.48;;;17.90;99.90;;;;;;5073209;28;20043;-50
2022/06/25 00:54:53;;;;;;;10.23;9.43;;;17.80;99.90;;;;;;5072940;28;20048;-48
2022/06/25 00:57:24;;;;;;;10.38;9.45;;;17.90;99.90;;;;;;5073335;28;20043;-48
2022/06/25 00:59:51;;;;;;;10.18;9.27;;;17.90;99.90;;;;;;5073117;28;20036;-50
2022/06/25 01:02:20;;;;;;;9.55;8.73;;;17.90;99.90;;;;;;5073247;28;20040;-49
2022/06/25 01:04:46;;;;;;;9.25;8.55;;;17.90;99.90;;;;;;5073208;28;20048;-51
2022/06/25 01:07:12;;;;;;;10.20;9.30;;;17.80;99.90;;;;;;5072956;28;20056;-51
2022/06/25 01:09:38;;;;;;;10.23;9.32;;;17.80;99.90;;;;;;5073227;28;20045;-49
2022/06/25 01:12:04;;;;;;;10.65;9.75;;;17.80;99.90;;;;;;5071880;28;20048;-52
2022/06/25 01:14:30;;;;;;;9.30;8.50;;;17.80;99.90;;;;;;5073069;28;20044;-49
2022/06/25 01:16:56;;;;;;;10.27;9.27;;;17.80;99.90;;;;;;5073102;28;20056;-51
2022/06/25 01:19:21;;;;;;;10.68;9.73;;;17.80;99.90;;;;;;5073007;28;20045;-49
2022/06/25 01:21:47;;;;;;;9.95;8.93;;;17.70;99.90;;;;;;5054892;28;20040;-50
2022/06/25 01:24:13;;;;;;;10.75;9.88;;;17.70;99.90;;;;;;5072852;28;20343;-49
2022/06/25 01:26:40;;;;;;;10.00;9.30;;;17.70;99.90;;;;;;5073016;28;20093;-48
2022/06/25 01:29:07;;;;;;;10.75;9.85;;;17.70;99.90;;;;;;5073102;28;20044;-48
2022/06/25 01:31:33;;;;;;;9.97;9.10;;;17.70;99.90;;;;;;5072920;28;20037;-52
2022/06/25 01:33:58;;;;;;;9.90;9.02;;;17.60;99.90;;;;;;5072868;28;20052;-49
2022/06/25 01:36:24;;;;;;;11.05;10.10;;;17.60;99.90;;;;;;5072980;28;20050;-49
2022/06/25 01:38:50;;;;;;;11.18;10.18;;;17.50;99.90;;;;;;5072945;28;20045;-49
2022/06/25 01:41:16;;;;;;;11.07;10.07;;;17.60;99.90;;;;;;5072863;28;20452;-50
2022/06/25 01:43:42;;;;;;;11.35;10.45;;;17.50;99.90;;;;;;5072759;28;20049;-51
2022/06/25 01:46:08;;;;;;;12.02;10.95;;;17.40;99.90;;;;;;5073223;28;20124;-53
2022/06/25 01:48:35;;;;;;;11.50;10.38;;;;;;;;;;5072702;28;20048;-49
2022/06/25 01:51:01;;;;;;;11.80;10.82;;;17.30;99.90;;;;;;5072957;28;20037;-51
2022/06/25 01:53:27;;;;;;;11.00;9.95;;;17.30;99.90;;;;;;5072701;28;20487;-52
2022/06/25 01:55:53;;;;;;;11.18;10.27;;;17.30;99.90;;;;;;5072528;28;20170;-50
2022/06/25 01:58:19;;;;;;;11.30;10.20;;;17.30;99.90;;;;;;5072739;28;20045;-48
2022/06/25 02:00:45;;;;;;;11.18;10.10;;;17.30;99.90;;;;;;5072635;28;20043;-49
2022/06/25 02:03:11;;;;;;;10.95;10.02;;;17.30;99.90;;;;;;5072522;28;20044;-48
2022/06/25 02:08:22;;;;;;;10.85;9.75;;;17.30;99.90;;;;;;5071537;28;20059;-48
2022/06/25 02:10:49;;;;;;;10.60;9.70;;;17.40;99.90;;;;;;5072655;28;20076;-53
2022/06/25 02:13:15;;;;;;;11.27;10.05;;;17.30;99.90;;;;;;5074696;28;20064;-51
2022/06/25 02:15:40;;;;;;;10.73;9.48;;;17.30;99.90;;;;;;5076247;28;20081;-53
2022/06/25 02:18:07;;;;;;;10.32;9.45;;;17.30;99.90;;;;;;5076287;28;20467;-53
2022/06/25 02:20:33;;;;;;;12.05;9.73;;;17.30;99.90;;;;;;5076235;28;20045;-49
2022/06/25 02:22:59;;;;;;;10.23;9.35;;;17.40;99.90;;;;;;5076414;28;20082;-50
2022/06/25 02:25:24;;;;;;;10.77;9.88;;;17.30;99.90;;;;;;5076165;28;20119;-50
2022/06/25 02:27:50;;;;;;;10.15;9.02;;;17.30;99.90;;;;;;5076152;28;20044;-48
2022/06/25 02:30:16;;;;;;;9.93;8.90;;;17.30;99.90;;;;;;5075861;28;20040;-48
2022/06/25 02:32:42;;;;;;;10.05;8.70;;;17.30;99.90;;;;;;5076177;28;20037;-50
2022/06/25 02:35:08;;;;;;;9.38;8.57;;;17.30;99.90;;;;;;5076064;28;20372;-52
2022/06/25 02:37:33;;;;;;;10.15;9.20;;;17.30;99.90;;;;;;5075989;28;20044;-52
2022/06/25 02:39:59;;;;;;;10.52;9.55;;;17.30;99.90;;;;;;5075936;28;20041;-50
2022/06/25 02:42:24;;;;;;;12.02;9.93;;;17.30;99.90;;;;;;5075832;28;20479;-48
2022/06/25 02:44:50;;;;;;;9.38;8.68;;;17.30;99.90;;;;;;5075596;28;20047;-48
2022/06/25 02:47:15;;;;;;;10.10;9.20;;;17.30;99.90;;;;;;5075915;28;20487;-48
2022/06/25 02:49:41;;;;;;;10.55;9.68;;;17.30;99.90;;;;;;5075607;28;20379;-49
2022/06/25 02:52:07;;;;;;;9.95;9.13;;;17.30;99.90;;;;;;5075786;28;20041;-49
2022/06/25 02:54:33;;;;;;;10.45;9.63;;;17.30;99.90;;;;;;5075352;28;20061;-52
2022/06/25 02:59:42;;;;;;;10.13;9.05;;;17.30;99.90;;;;;;5075710;28;20048;-48
2022/06/25 03:02:08;;;;;;;10.82;9.70;;;17.30;99.90;;;;;;5075689;28;20036;-49
2022/06/25 03:04:34;;;;;;;9.75;8.85;;;17.30;99.90;;;;;;5075668;28;20044;-49
2022/06/25 03:07:00;;;;;;;10.32;9.38;;;17.30;99.90;;;;;;5075518;28;20040;-48
2022/06/25 03:09:25;;;;;;;10.48;9.43;;;17.20;99.90;;;;;;5075577;28;20445;-50
2022/06/25 03:11:51;;;;;;;10.88;9.75;;;17.30;99.90;;;;;;5075287;28;20127;-53
2022/06/25 03:14:17;;;;;;;10.10;9.10;;;17.20;99.90;;;;;;5075130;28;20041;-51
2022/06/25 03:16:43;;;;;;;10.02;9.05;;;17.20;99.90;;;;;;5075419;28;20041;-48
2022/06/25 03:19:09;;;;;;;10.23;9.30;;;17.20;99.90;;;;;;5075404;28;20037;-51
2022/06/25 03:21:35;;;;;;;9.85;9.05;;;17.20;99.90;;;;;;5074119;28;20048;-51
2022/06/25 03:24:02;;;;;;;9.68;8.80;;;17.20;99.90;;;;;;5075209;28;20045;-51
2022/06/25 03:26:28;;;;;;;9.55;8.75;;;17.20;99.90;;;;;;5075684;28;20072;-52
2022/06/25 03:28:53;;;;;;;10.02;9.00;;;17.20;99.90;;;;;;5074847;28;20487;-52
2022/06/25 03:31:21;;;;;;;9.90;8.90;;;17.10;99.90;;;;;;5075173;28;20040;-53
2022/06/25 03:33:47;;;;;;;9.75;8.77;;;17.10;99.90;;;;;;5075068;28;20041;-53
2022/06/25 03:36:12;;;;;;;9.27;8.57;;;17.20;99.90;;;;;;5074902;28;20193;-49
2022/06/25 03:38:38;;;;;;;9.90;9.07;;;17.20;99.90;;;;;;5075010;28;20119;-49
2022/06/25 03:43:49;;;;;;;9.38;8.68;;;17.20;99.90;;;;;;5074947;28;20060;-50
2022/06/25 03:46:14;;;;;;;11.52;8.57;;;17.20;99.90;;;;;;5074742;28;20040;-49
2022/06/25 03:48:40;;;;;;;8.63;7.82;;;17.10;99.90;;;;;;5074855;28;20481;-51
2022/06/25 03:51:06;;;;;;;9.48;8.68;;;17.20;99.90;;;;;;5074706;28;20043;-49
2022/06/25 03:53:31;;;;;;;9.50;8.70;;;17.20;99.90;;;;;;5074254;28;20494;-48
2022/06/25 03:55:57;;;;;;;8.40;7.70;;;17.20;99.90;;;;;;5074183;28;20040;-49
2022/06/25 03:58:22;;;;;;;8.30;7.70;;;17.20;99.90;;;;;;5074413;28;20052;-50
2022/06/25 04:00:48;;;;;;;8.15;7.40;;;17.30;99.90;;;;;;5074547;28;20040;-53
2022/06/25 04:03:13;;;;;;;7.88;7.10;;;17.30;99.90;;;;;;5074435;28;20463;-49
2022/06/25 04:05:39;;;;;;;8.05;7.35;;;17.30;99.90;;;;;;5074354;28;20059;-50
2022/06/25 04:08:05;;;;;;;8.75;7.93;;;17.30;99.90;;;;;;5074817;28;20049;-49
2022/06/25 04:10:30;;;;;;;8.65;7.95;;;17.40;99.90;;;;;;5074558;28;20040;-48
2022/06/25 04:12:56;;;;;;;9.45;7.35;;;17.40;99.90;;;;;;5074432;28;20079;-51
2022/06/25 04:15:21;;;;;;;7.53;6.85;;;17.40;99.90;;;;;;5074278;28;20149;-49
2022/06/25 04:17:47;;;;;;;8.10;7.30;;;17.40;99.90;;;;;;5074084;28;20045;-49
2022/06/25 04:20:12;;;;;;;11.38;7.65;;;17.40;99.90;;;;;;5074507;28;20037;-49
2022/06/25 04:22:38;;;;;;;7.97;7.18;;;17.50;99.90;;;;;;5073914;28;20037;-49
2022/06/25 04:25:04;;;;;;;7.88;7.18;;;17.50;99.90;;;;;;5073917;28;20048;-52
2022/06/25 04:30:14;;;;;;;8.23;6.75;;;17.60;99.90;;;;;;5073914;28;20060;-52
2022/06/25 04:32:40;;;;;;;9.20;6.88;;;17.70;99.90;;;;;;5073693;28;20036;-50
2022/06/25 04:35:06;;;;;;;8.05;6.75;;;17.60;99.90;;;;;;5073280;28;20037;-49
2022/06/25 04:37:31;;;;;;;7.85;7.07;;;17.90;99.90;;;;;;5073588;28;20043;-49
2022/06/25 04:39:57;;;;;;;7.90;6.82;;;19.50;99.90;;;;;;5073840;28;20041;-49
2022/06/25 04:42:22;;;;;;;7.40;5.97;;;20.30;99.90;;;;;;5073642;28;20123;-50
2022/06/25 04:44:48;;;;;;;6.07;5.57;;;21.30;99.90;;;;;;5073599;28;20051;-50
2022/06/25 04:47:13;;;;;;;6.10;5.50;;;22.20;99.90;;;;;;5073554;28;20083;-50
2022/06/25 04:49:39;;;;;;;5.60;5.10;;;23.10;99.90;;;;;;5073554;28;20040;-49
2022/06/25 04:52:05;;;;;;;6.25;4.72;;;23.60;99.90;;;;;;5073354;28;20041;-50
2022/06/25 04:54:30;;;;;;;4.95;4.45;;;24.20;99.90;;;;;;5073506;28;20048;-49
2022/06/25 04:56:56;;;;;;;4.93;4.53;;;24.70;99.90;;;;;;5073253;28;20180;-49
2022/06/25 04:59:22;;;;;;;6.88;4.35;;;25.30;99.90;;;;;;5073328;28;20040;-49
2022/06/25 05:01:47;;;;;;;5.38;4.30;;;25.70;99.90;;;;;;5073304;28;20036;-50
2022/06/25 05:04:13;;;;;;;4.35;3.95;;;26.10;99.90;;;;;;5073259;28;20143;-53
2022/06/25 05:06:38;;;;;;;6.72;4.28;;;26.50;99.90;;;;;;5073190;28;20056;-50
2022/06/25 05:09:04;;;;;;;3.88;3.58;;;26.70;99.90;;;;;;5073360;28;20044;-51
2022/06/25 05:11:29;;;;;;;5.30;4.05;;;27.00;99.90;;;;;;5073321;28;20044;-49
2022/06/25 05:13:55;;;;;;;4.20;3.78;;;27.20;99.90;;;;;;5073269;28;20438;-50
2022/06/25 05:16:21;;;;;;;4.55;4.10;;;27.70;99.90;;;;;;5073065;28;20048;-51
2022/06/25 05:18:48;;;;;;;4.57;3.85;;;27.80;99.90;;;;;;5073134;28;20455;-50
2022/06/25 05:21:14;;;;;;;4.18;3.55;;;28.20;99.90;;;;;;5072960;28;20048;-54
2022/06/25 05:23:39;;;;;;;4.13;3.58;;;28.40;99.90;;;;;;5073117;28;20044;-53
2022/06/25 05:26:05;;;;;;;3.53;3.22;;;28.50;99.90;;;;;;5072981;28;20447;-51
2022/06/25 05:28:30;;;;;;;4.57;3.05;;;28.70;99.90;;;;;;5073044;28;20040;-53
2022/06/25 05:30:56;;;;;;;7.50;3.10;;;28.90;99.90;;;;;;5054971;28;20051;-52
2022/06/25 05:33:21;;;;;;;3.97;3.28;;;29.10;99.90;;;;;;5072979;28;20083;-51
2022/06/25 05:35:47;;;;;;;6.20;3.45;;;29.30;99.90;;;;;;5071497;28;20040;-53
2022/06/25 05:38:13;;;;;;;6.32;2.95;;;29.50;99.90;;;;;;5073061;28;20486;-50
2022/06/25 05:40:39;;;;;;;4.45;2.92;;;29.90;99.90;;;;;;5072908;28;20086;-50
2022/06/25 05:43:05;;;;;;;3.03;2.63;;;30.00;99.10;;;;;;5072746;28;20486;-54
2022/06/25 05:45:30;;;;;;;3.17;2.80;;;30.10;98.90;;;;;;5072814;28;20040;-50
2022/06/25 05:47:56;;;;;;;4.38;3.03;;;30.20;99.20;;;;;;5074559;28;20115;-53
2022/06/25 05:50:22;;;;;;;3.53;2.65;;;30.00;97.50;;;;;;5076591;28;20041;-53
2022/06/25 05:52:47;;;;;;;5.47;2.80;;;30.00;96.30;;;;;;5076708;28;20041;-53
2022/06/25 05:55:13;;;;;;;2.58;2.38;;;30.40;96.60;;;;;;5074717;28;20423;-53
2022/06/25 05:57:39;;;;;;;2.53;2.40;;;30.90;97.20;;;;;;5076193;28;20063;-51
2022/06/25 06:00:05;;;;;;;3.30;2.88;;;31.00;97.30;;;;;;5076434;28;20112;-52
2022/06/25 06:02:31;;;;;;;3.92;2.47;;;31.10;94.30;;;;;;5076260;28;20059;-54
2022/06/25 06:04:56;;;;;;;2.75;2.33;;;31.10;93.60;;;;;;5076067;28;20056;-53
2022/06/25 06:07:22;;;;;;;4.10;2.33;;;30.60;92.80;;;;;;5076296;28;20421;-53
2022/06/25 06:09:47;;;;;;;3.15;2.38;;;30.50;93.30;;;;;;5076319;28;20041;-50
2022/06/25 06:12:13;;;;;;;8.15;2.15;;;29.80;92.10;;;;;;5076052;28;20115;-52
2022/06/25 06:14:39;;;;;;;4.47;2.70;;;29.80;92.70;;;;;;5076261;28;20036;-52
2022/06/25 06:17:05;;;;;;;4.05;2.35;;;29.80;92.60;;;;;;5075800;28;20398;-53
2022/06/25 06:19:30;;;;;;;2.88;2.10;;;29.90;92.20;;;;;;5075703;28;20123;-50
2022/06/25 06:21:56;;;;;;;3.20;2.92;;;30.20;93.60;;;;;;5075907;28;20193;-52
2022/06/25 06:24:21;;;;;;;4.63;2.97;;;30.20;92.50;;;;;;5075949;28;20059;-51
2022/06/25 06:26:47;;;;;;;2.50;2.20;;;30.90;91.90;;;;;;5075914;28;20048;-52
2022/06/25 06:29:12;;;;;;;4.18;2.47;;;31.10;92.60;;;;;;5075457;28;20040;-52
2022/06/25 06:31:38;;;;;;;2.75;2.33;;;31.20;91.40;;;;;;5075616;28;20079;-52
2022/06/25 06:34:04;;;;;;;4.85;2.60;;;31.40;90.80;;;;;;5075669;28;20427;-51
2022/06/25 06:36:29;;;;;;;7.28;2.45;;;30.90;89.10;;;;;;5075547;28;20067;-50
2022/06/25 06:38:55;;;;;;;4.50;2.58;;;31.10;90.20;;;;;;5075599;28;20378;-49
2022/06/25 06:41:20;;;;;;;5.07;2.90;;;31.00;88.90;;;;;;5075383;28;20037;-52
2022/06/25 06:43:46;;;;;;;4.40;2.47;;;31.10;86.70;;;;;;5076059;28;20506;-53
2022/06/25 06:46:13;;;;;;;3.63;2.60;;;31.30;88.00;;;;;;5075947;28;20056;-53
2022/06/25 06:48:39;;;;;;;2.30;2.10;;;31.10;86.50;;;;;;5075799;28;20048;-53
2022/06/25 06:51:05;;;;;;;7.18;2.28;;;31.20;86.10;;;;;;5075833;28;20037;-52
2022/06/25 06:53:32;;;;;;;3.27;2.50;;;31.00;88.00;;;;;;5075783;28;20056;-51
2022/06/25 06:55:57;;;;;;;3.47;2.33;;;31.20;87.70;;;;;;5075480;28;20396;-52
2022/06/25 06:58:23;;;;;;;2.87;2.30;;;31.30;88.30;;;;;;5075205;28;20086;-52
2022/06/25 07:00:48;;;;;;;3.30;2.20;;;30.70;85.60;;;;;;5075627;28;20450;-52
2022/06/25 07:03:14;;;;;;;4.63;2.55;;;30.60;85.30;;;;;;5075556;28;20134;-53
2022/06/25 07:05:39;;;;;;;2.83;1.93;;;30.10;84.00;;;;;;5075738;28;20089;-51
2022/06/25 07:08:05;;;;;;;5.03;2.53;;;30.00;86.40;;;;;;5075615;28;20406;-52
2022/06/25 07:10:31;;;;;;;3.80;2.10;;;30.00;85.80;;;;;;5075556;28;20079;-52
2022/06/25 07:12:56;;;;;;;4.68;2.25;;;30.10;86.10;;;;;;5075371;28;20530;-53
2022/06/25 07:15:22;;;;;;;7.17;2.13;;;30.30;86.50;;;;;;5075373;28;20123;-50
2022/06/25 07:17:47;;;;;;;3.43;2.07;;;30.50;87.50;;;;;;5075171;28;20045;-52
2022/06/25 07:20:13;;;;;;;4.43;1.83;;;30.50;88.30;;;;;;5075268;28;20375;-51
2022/06/25 07:22:39;;;;;;;4.20;2.07;;;30.60;85.80;;;;;;5075531;28;20497;-52
2022/06/25 07:25:05;;;;;;;3.70;2.20;;;30.60;85.00;;;;;;5075086;28;20090;-50
2022/06/25 07:27:30;;;;;;;4.93;1.77;;;30.90;85.00;;;;;;5075286;28;20040;-53
2022/06/25 07:29:56;;;;;;;3.53;2.50;;;31.00;85.10;;;;;;5075164;28;20107;-53
2022/06/25 07:32:22;;;;;;;4.93;2.30;;;31.00;83.10;;;;;;5074977;28;20433;-53
2022/06/25 07:34:47;;;;;;;4.68;2.15;;;31.00;84.10;;;;;;5075122;28;20044;-51
2022/06/25 07:37:13;;;;;;;3.60;2.10;;;30.80;82.90;;;;;;5075078;28;20083;-50
2022/06/25 07:39:38;;;;;;;2.77;2.10;;;30.80;83.80;;;;;;5074912;28;20467;-51
2022/06/25 07:42:04;;;;;;;2.40;2.00;;;30.60;81.00;;;;;;5074872;28;20040;-52
2022/06/25 07:44:30;;;;;;;3.73;2.10;;;30.40;83.20;;;;;;5074715;28;20495;-54
2022/06/25 07:46:55;;;;;;;3.20;2.28;;;29.80;82.40;;;;;;5074729;28;20044;-50
2022/06/25 07:49:21;;;;;;;3.13;2.10;;;29.80;82.70;;;;;;5074654;28;20462;-48
2022/06/25 07:51:56;;;;;;;2.80;1.88;;;29.10;84.40;;;;;;5074674;28;20036;-52
2022/06/25 07:54:25;;;;;;;4.07;2.13;;;28.60;86.90;;;;;;5074271;28;20530;-48
2022/06/25 07:56:52;;;;;;;3.03;2.08;;;28.00;87.50;;;;;;5074310;28;20090;-50
2022/06/25 07:59:17;;;;;;;4.25;2.17;;;27.80;87.90;;;;;;5074494;28;20491;-49
2022/06/25 08:01:43;;;;;;;4.90;2.08;;;27.60;89.10;;;;;;5074256;28;20052;-51
2022/06/25 08:04:08;;;;;;;3.42;2.03;;;27.30;91.30;;;;;;5074534;28;20037;-52
2022/06/25 08:06:37;;;;;;;2.45;2.10;;;27.20;90.80;;;;;;5073316;28;20474;-52
2022/06/25 08:09:04;;;;;;;4.30;2.15;;;27.10;91.50;;;;;;5074294;28;20051;-53
2022/06/25 08:11:30;;;;;;;3.63;1.90;;;26.80;91.60;;;;;;5073346;28;20043;-50
2022/06/25 08:13:56;;;;;;;6.40;2.28;;;26.80;91.70;;;;;;5074039;28;20051;-53
2022/06/25 08:16:25;;;;;;;4.97;1.80;;;26.40;92.40;;;;;;5073868;28;20045;-54
2022/06/25 08:18:51;;;;;;;3.50;1.70;;;26.50;93.10;;;;;;5074101;28;20048;-49
2022/06/25 08:21:16;;;;;;;6.43;2.05;;;26.50;92.80;;;;;;5074058;28;20518;-49
2022/06/25 08:23:42;;;;;;;2.95;1.70;;;26.40;93.80;;;;;;5073826;28;20083;-51
2022/06/25 08:26:08;;;;;;;5.18;2.13;;;26.70;94.20;;;;;;5072670;28;20050;-52
2022/06/25 08:28:34;;;;;;;4.20;2.17;;;26.80;93.50;;;;;;5072684;28;20048;-48
2022/06/25 08:31:00;;;;;;;4.30;2.25;;;26.60;93.30;;;;;;5073926;28;20048;-53
2022/06/25 08:33:25;;;;;;;2.65;1.92;;;26.80;92.60;;;;;;5074012;28;20411;-53
2022/06/25 08:35:51;;;;;;;5.57;1.92;;;26.50;93.10;;;;;;5073866;28;20081;-52
2022/06/25 08:38:17;;;;;;;2.30;1.80;;;26.50;93.60;;;;;;5073663;28;20043;-53
2022/06/25 08:40:42;;;;;;;2.55;1.80;;;26.80;94.10;;;;;;5073686;28;20083;-49
2022/06/25 08:43:08;;;;;;;4.80;2.00;;;26.50;92.70;;;;;;5073609;28;20062;-52
2022/06/25 08:45:34;;;;;;;3.60;2.35;;;26.20;93.60;;;;;;5073382;28;20502;-52
2022/06/25 08:48:01;;;;;;;3.63;2.10;;;26.00;93.90;;;;;;5073294;28;20084;-52
2022/06/25 08:50:27;;;;;;;7.90;2.65;;;26.00;94.40;;;;;;5072915;28;20485;-52
2022/06/25 08:52:54;;;;;;;4.97;1.95;;;26.30;95.10;;;;;;5072781;28;20093;-52
2022/06/25 08:55:30;;;;;;;2.70;1.80;;;26.20;94.00;;;;;;5071534;28;20058;-50
2022/06/25 08:57:57;;;;;;;2.25;1.60;;;26.40;94.30;;;;;;5072839;28;20127;-50
2022/06/25 09:00:23;;;;;;;5.47;1.80;;;26.30;95.60;;;;;;5072799;28;20463;-51
2022/06/25 09:02:49;;;;;;;2.88;1.92;;;26.00;95.00;;;;;;5072995;28;20117;-49
2022/06/25 09:05:15;;;;;;;5.60;2.30;;;26.00;95.10;;;;;;5072662;28;20080;-50
2022/06/25 09:07:53;;;;;;;4.75;1.67;;;25.90;95.40;;;;;;5072574;28;20040;-53
2022/06/25 09:10:19;;;;;;;3.55;1.60;;;26.00;95.80;;;;;;5071926;28;20522;-51
2022/06/25 09:12:50;;;;;;;4.38;1.60;;;26.00;95.90;;;;;;5072110;28;20047;-49
2022/06/25 09:15:21;;;;;;;2.53;1.70;;;25.80;95.30;;;;;;5072244;28;20048;-50
2022/06/25 09:17:51;;;;;;;1.98;1.40;;;25.80;95.50;;;;;;5072111;28;20097;-52
2022/06/25 09:20:17;;;;;;;2.15;1.30;;;26.10;95.60;;;;;;5071994;28;20094;-50
2022/06/25 09:22:58;;;;;;;4.55;1.33;;;26.00;94.70;;;;;;5071666;28;20452;-52
2022/06/25 09:25:25;;;;;;;2.55;1.38;;;26.00;95.00;;;;;;5072019;28;20135;-53
2022/06/25 09:27:51;;;;;;;2.45;1.60;;;25.90;95.80;;;;;;5071888;28;20084;-53
2022/06/25 09:30:19;;;;;;;3.17;1.40;;;25.70;95.30;;;;;;5071878;28;20075;-52
2022/06/25 09:32:50;;;;;;;3.08;1.40;;;25.60;96.10;;;;;;5071580;28;20518;-49
2022/06/25 09:35:29;;;;;;;5.18;1.52;;;25.90;96.20;;;;;;5071771;28;20055;-50
2022/06/25 09:38:01;;;;;;;3.08;1.70;;;26.00;96.40;;;;;;5071793;28;20411;-51
2022/06/25 09:40:28;;;;;;;2.83;1.70;;;26.40;95.60;;;;;;5071776;28;20083;-49
2022/06/25 09:42:55;;;;;;;2.08;1.35;;;26.50;95.90;;;;;;5071689;28;20402;-49
2022/06/25 09:45:21;;;;;;;3.85;1.80;;;26.50;94.50;;;;;;5071800;28;20039;-51
2022/06/25 09:47:46;;;;;;;4.00;1.70;;;26.80;95.70;;;;;;5071962;28;20048;-51
2022/06/25 09:50:15;;;;;;;2.35;1.15;;;27.10;94.80;;;;;;5071878;28;20391;-53
2022/06/25 09:52:59;;;;;;;2.95;1.45;;;27.00;92.80;;;;;;5071904;28;20461;-51
2022/06/25 09:55:26;;;;;;;2.97;1.40;;;26.70;93.40;;;;;;5070018;28;20078;-52
2022/06/25 09:57:53;;;;;;;3.70;1.35;;;26.80;94.10;;;;;;5071756;28;20045;-50
2022/06/25 10:00:20;;;;;;;2.75;1.30;;;26.70;93.60;;;;;;5072343;28;20486;-51
2022/06/25 10:02:48;;;;;;;5.97;1.52;;;26.70;94.30;;;;;;5071042;28;20079;-52
2022/06/25 10:05:17;;;;;;;5.57;1.50;;;26.80;94.10;;;;;;5072009;28;20036;-50
2022/06/25 10:10:36;;;;;;;2.40;1.35;;;26.40;94.50;;;;;;5071961;28;20102;-52
2022/06/25 10:13:03;;;;;;;2.00;1.40;;;26.50;93.50;;;;;;5071861;28;20090;-50
2022/06/25 10:15:29;;;;;;;3.42;1.70;;;26.40;94.30;;;;;;5071940;28;20056;-50
2022/06/25 10:17:55;;;;;;;3.23;1.13;;;26.70;94.00;;;;;;5071892;28;20074;-52
2022/06/25 10:20:22;;;;;;;4.07;1.30;;;26.90;93.20;;;;;;5071942;28;20147;-49
2022/06/25 10:22:50;;;;;;;4.40;1.42;;;27.20;92.90;;;;;;5071813;28;20386;-52
2022/06/25 10:25:20;;;;;;;3.38;1.83;;;27.20;92.70;;;;;;5071403;28;20466;-49
2022/06/25 10:27:48;;;;;;;4.57;1.58;;;27.40;93.10;;;;;;5071768;28;20041;-49
2022/06/25 10:30:34;;;;;;;1.42;1.33;;;27.70;93.50;;;;;;5071676;28;20045;-51
2022/06/25 10:33:00;;;;;;;2.58;1.40;;;27.80;92.70;;;;;;5071369;28;20051;-50
2022/06/25 10:35:32;;;;;;;3.03;1.25;;;27.90;92.00;;;;;;5074965;28;20394;-49
2022/06/25 10:38:10;;;;;;;3.42;1.63;;;27.90;92.90;;;;;;5074721;28;20051;-49
2022/06/25 10:40:48;;;;;;;2.95;1.50;;;27.60;92.00;;;;;;5075225;28;20072;-48
2022/06/25 10:43:39;;;;;;;5.57;1.48;;;27.90;93.10;;;;;;5075058;28;20336;-49
2022/06/25 10:46:28;;;;;;;2.20;1.42;;;28.40;91.90;;;;;;5075536;28;20037;-47
2022/06/25 10:49:03;;;;;;;3.20;1.10;;;28.10;90.30;;;;;;5075959;28;20060;-50
2022/06/25 10:51:33;;;;;;;1.92;1.00;;;27.70;90.50;;;;;;5074775;28;20045;-49
2022/06/25 10:54:01;;;;;;;3.80;1.10;;;28.30;90.90;;;;;;5074165;28;20053;-52
2022/06/25 10:56:31;;;;;;;2.28;0.82;;;28.60;91.20;;;;;;5074313;28;20098;-50
2022/06/25 10:58:58;;;;;;;1.00;0.90;;;28.30;89.40;;;;;;5075878;28;20049;-49
2022/06/25 11:01:27;;;;;;;2.35;1.15;;;28.00;90.00;;;;;;5075834;28;20048;-52
2022/06/25 11:03:58;;;;;;;2.72;1.10;;;28.40;90.10;;;;;;5075963;28;20470;-49
2022/06/25 11:06:32;;;;;;;2.00;0.90;;;28.80;90.30;;;;;;5075568;28;20501;-50
2022/06/25 11:09:10;;;;;;;5.95;1.20;;;28.80;90.00;;;;;;5075443;28;20487;-50
2022/06/25 11:11:36;;;;;;;2.70;1.00;;;29.10;87.70;;;;;;5075538;28;20092;-49
2022/06/25 11:14:11;;;;;;;3.03;1.23;;;29.10;86.00;;;;;;5075466;28;20498;-49
2022/06/25 11:16:36;;;;;;;1.85;1.10;;;28.80;85.20;;;;;;5075289;28;20052;-51
2022/06/25 11:19:02;;;;;;;2.85;0.93;;;28.90;84.30;;;;;;5075178;28;20406;-49
2022/06/25 11:21:37;;;;;;;2.80;1.00;;;28.70;84.80;;;;;;5075308;28;20036;-50
2022/06/25 11:24:11;;;;;;;4.18;1.30;;;28.60;85.40;;;;;;5075230;28;20048;-49
2022/06/25 11:29:29;;;;;;;3.30;1.20;;;28.20;86.80;;;;;;5073083;28;20083;-49
2022/06/25 11:31:55;;;;;;;1.55;0.95;;;28.30;88.90;;;;;;5074294;28;20045;-48
2022/06/25 11:34:22;;;;;;;2.60;1.17;;;28.10;89.20;;;;;;5074003;28;20052;-50
2022/06/25 11:37:09;;;;;;;1.80;1.10;;;28.10;86.60;;;;;;5074165;28;20479;-52
2022/06/25 11:39:37;;;;;;;1.75;0.90;;;28.60;90.40;;;;;;5074339;28;20486;-52
2022/06/25 11:42:07;;;;;;;2.55;0.90;;;28.70;87.70;;;;;;5074939;28;20040;-52
2022/06/25 11:44:43;;;;;;;1.15;0.95;;;28.90;85.20;;;;;;5073963;28;20068;-49
2022/06/25 11:47:13;;;;;;;2.00;1.00;;;28.80;84.90;;;;;;5074610;28;20453;-50
2022/06/25 11:49:41;;;;;;;2.50;1.30;;;29.00;83.90;;;;;;5074839;28;20283;-53
2022/06/25 11:52:08;;;;;;;2.53;1.27;;;28.60;84.00;;;;;;5074603;28;20040;-49
2022/06/25 11:54:36;;;;;;;;;;;29.00;83.70;;;;;;5074820;28;20063;-49
2022/06/25 11:57:04;;;;;;;2.70;1.00;;;29.10;83.20;;;;;;5074316;28;19973;-50
2022/06/25 11:59:36;;;;;;;2.05;0.85;;;29.00;83.50;;;;;;5074396;28;20040;-52
2022/06/25 12:02:04;;;;;;;1.83;1.13;;;28.50;83.50;;;;;;5074616;28;20040;-52
2022/06/25 12:04:32;;;;;;;5.30;1.00;;;28.20;85.30;;;;;;5074785;28;20044;-50
2022/06/25 12:06:58;;;;;;;2.78;1.00;;;28.00;85.40;;;;;;5073253;28;20045;-51
2022/06/25 12:09:25;;;;;;;3.13;0.90;;;28.10;85.60;;;;;;5074173;28;20439;-52
2022/06/25 12:11:51;;;;;;;0.65;0.63;;;28.20;86.40;;;;;;5074483;28;20052;-52
2022/06/25 12:14:26;;;;;;;1.50;0.87;;;28.20;85.50;;;;;;5074439;28;20072;-53
2022/06/25 12:16:53;;;;;;;1.17;0.80;;;28.10;84.60;;;;;;5074176;28;20322;-52
2022/06/25 12:19:19;;;;;;;;;;;28.20;85.20;;;;;;5074612;28;20040;-50
2022/06/25 12:21:44;;;;;;;1.35;0.77;;;28.40;86.80;;;;;;5074071;28;19927;-50
2022/06/25 12:24:13;;;;;;;2.15;1.10;;;28.40;85.20;;;;;;5073932;28;20489;-49
2022/06/25 12:26:41;;;;;;;2.30;1.10;;;28.10;85.60;;;;;;5072609;28;20056;-49
2022/06/25 12:29:08;;;;;;;2.65;0.98;;;27.90;85.60;;;;;;5073951;28;20124;-53
2022/06/25 12:31:34;;;;;;;2.60;1.30;;;27.80;86.50;;;;;;5073844;28;20094;-50
2022/06/25 12:34:04;;;;;;;2.17;0.95;;;27.60;86.40;;;;;;5073810;28;20534;-53
2022/06/25 12:36:33;;;;;;;2.45;0.90;;;27.40;86.60;;;;;;5074161;28;20044;-49
2022/06/25 12:38:58;;;;;;;3.05;1.20;;;27.20;88.00;;;;;;5073618;28;20486;-52
2022/06/25 12:41:44;;;;;;;3.38;1.00;;;27.00;87.80;;;;;;5073870;28;20048;-50
2022/06/25 12:44:13;;;;;;;2.95;1.10;;;26.80;90.10;;;;;;5073731;28;20049;-52
2022/06/25 12:46:38;;;;;;;2.83;0.90;;;26.70;90.50;;;;;;5072546;28;20545;-53
2022/06/25 12:49:04;;;;;;;2.58;0.90;;;26.70;90.10;;;;;;5073475;28;20041;-49
2022/06/25 12:51:30;;;;;;;1.63;1.00;;;26.70;91.40;;;;;;5073581;28;20047;-49
2022/06/25 12:53:56;;;;;;;3.65;1.00;;;26.80;90.90;;;;;;5073510;28;20056;-49
2022/06/25 12:56:22;;;;;;;2.58;1.02;;;26.90;91.40;;;;;;5073107;28;20040;-50
2022/06/25 12:58:47;;;;;;;1.48;0.88;;;26.90;91.20;;;;;;5073392;28;20051;-52
2022/06/25 13:01:25;;;;;;;2.90;0.98;;;26.70;90.60;;;;;;5073539;28;20050;-49